Aviation Digital Data Service (ADDS)

Output produced by TAFs form (0451 UTC 30 March 2017)
found at http://www.aviationweather.gov/adds/tafs/
 
METAR text: ELLX 300420Z VRB01KT CAVOK 10/06 Q1027 NOSIG
Conditions at: ELLX (LUXEMBOURG (AUT), LU) observed 0420 UTC 30 March 2017
Temperature: 10.0°C (50°F)
Dewpoint: 6.0°C (43°F) [RH = 76%]
Pressure (altimeter): 30.32 inches Hg (1027.0 mb)
Winds: variable direction winds at 1 MPH (1 knots; 0.5 m/s)
Visibility: 6 or more miles (10+ km)
Ceiling: ceiling and visibility are OK
Clouds: unknown
Weather: no significant weather observed at this time

Forecast for: ELLX (LUXEMBOURG (AUT), LU)
Text: TAF ELLX 292300Z 3000/3106 VRB05KT CAVOK
Forecast period: 0000 to 0800 UTC 30 March 2017
Forecast type: FROM: standard forecast or significant change
Winds: variable direction winds at 6 MPH (5 knots; 2.6 m/s)
Visibility: 6 or more miles (10+ km)
Clouds: not forecast
Weather: NSW  (no significant weather)
Text: BECMG 3008/3010 16007KT
Forecast period: 0800 UTC 30 March 2017 to 0600 UTC 31 March 2017
Forecast type: BECOMING: Conditions expected to become as follows by 1000 UTC 30 March 2017
Winds: from the SSE (160 degrees) at 8 MPH (7 knots; 3.6 m/s)
Visibility: 6 or more miles (10+ km)
Weather: NSW  (no significant weather)